sensor_id;sensor_type;location;lat;lon;timestamp;pressure;altitude;pressure_sealevel;temperature;humidity
12146;BME280;6136;47.032;15.398;2024-03-25T00:01:50;96583.63;;;1.70;100.00
12146;BME280;6136;47.032;15.398;2024-03-25T00:04:16;96589.75;;;1.69;100.00
12146;BME280;6136;47.032;15.398;2024-03-25T00:06:43;96587.47;;;1.62;100.00
12146;BME280;6136;47.032;15.398;2024-03-25T00:09:09;96597.97;;;1.60;100.00
12146;BME280;6136;47.032;15.398;2024-03-25T00:11:40;96603.97;;;1.62;100.00
12146;BME280;6136;47.032;15.398;2024-03-25T00:14:07;96600.44;;;1.63;100.00
12146;BME280;6136;47.032;15.398;2024-03-25T00:16:35;96601.59;;;1.56;100.00
12146;BME280;6136;47.032;15.398;2024-03-25T00:19:01;96595.69;;;1.52;100.00
12146;BME280;6136;47.032;15.398;2024-03-25T00:21:28;96603.81;;;1.45;100.00
12146;BME280;6136;47.032;15.398;2024-03-25T00:23:54;96598.59;;;1.45;100.00
12146;BME280;6136;47.032;15.398;2024-03-25T00:26:23;96607.34;;;1.44;100.00
12146;BME280;6136;47.032;15.398;2024-03-25T00:28:49;96598.66;;;1.43;100.00
12146;BME280;6136;47.032;15.398;2024-03-25T00:31:17;96593.06;;;1.52;100.00
12146;BME280;6136;47.032;15.398;2024-03-25T00:33:43;96599.00;;;1.56;100.00
12146;BME280;6136;47.032;15.398;2024-03-25T00:36:10;96596.53;;;1.53;100.00
12146;BME280;6136;47.032;15.398;2024-03-25T00:38:38;96609.03;;;1.45;100.00
12146;BME280;6136;47.032;15.398;2024-03-25T00:41:05;96603.72;;;1.48;100.00
12146;BME280;6136;47.032;15.398;2024-03-25T00:43:31;96594.34;;;1.42;100.00
12146;BME280;6136;47.032;15.398;2024-03-25T00:45:59;96590.34;;;1.34;100.00
12146;BME280;6136;47.032;15.398;2024-03-25T00:48:26;96598.13;;;1.35;100.00
12146;BME280;6136;47.032;15.398;2024-03-25T00:50:53;96595.19;;;1.43;100.00
12146;BME280;6136;47.032;15.398;2024-03-25T00:53:19;96591.75;;;1.42;100.00
12146;BME280;6136;47.032;15.398;2024-03-25T00:55:47;96604.47;;;1.30;100.00
12146;BME280;6136;47.032;15.398;2024-03-25T00:58:13;96586.97;;;1.32;100.00
12146;BME280;6136;47.032;15.398;2024-03-25T01:00:41;96600.28;;;1.26;100.00
12146;BME280;6136;47.032;15.398;2024-03-25T01:03:07;96593.16;;;1.29;100.00
12146;BME280;6136;47.032;15.398;2024-03-25T01:05:36;96598.59;;;1.25;100.00
12146;BME280;6136;47.032;15.398;2024-03-25T01:08:02;96592.56;;;1.23;100.00
12146;BME280;6136;47.032;15.398;2024-03-25T01:10:29;96584.09;;;1.17;100.00
12146;BME280;6136;47.032;15.398;2024-03-25T01:12:56;96588.72;;;1.11;100.00
12146;BME280;6136;47.032;15.398;2024-03-25T01:15:23;96588.63;;;1.12;100.00
12146;BME280;6136;47.032;15.398;2024-03-25T01:17:49;96573.19;;;1.08;100.00
12146;BME280;6136;47.032;15.398;2024-03-25T01:20:16;96567.84;;;1.11;100.00
12146;BME280;6136;47.032;15.398;2024-03-25T01:22:43;96575.47;;;1.15;100.00
12146;BME280;6136;47.032;15.398;2024-03-25T01:25:10;96573.88;;;1.11;100.00
12146;BME280;6136;47.032;15.398;2024-03-25T01:27:37;96568.91;;;1.05;100.00
12146;BME280;6136;47.032;15.398;2024-03-25T01:30:05;96581.31;;;1.00;100.00
12146;BME280;6136;47.032;15.398;2024-03-25T01:32:31;96582.41;;;0.95;100.00
12146;BME280;6136;47.032;15.398;2024-03-25T01:34:58;96581.56;;;0.94;100.00
12146;BME280;6136;47.032;15.398;2024-03-25T01:37:24;96574.66;;;0.93;100.00
12146;BME280;6136;47.032;15.398;2024-03-25T01:39:53;96573.69;;;0.96;100.00
12146;BME280;6136;47.032;15.398;2024-03-25T01:42:19;96571.94;;;0.96;100.00
12146;BME280;6136;47.032;15.398;2024-03-25T01:44:46;96567.38;;;1.01;100.00
12146;BME280;6136;47.032;15.398;2024-03-25T01:47:13;96589.56;;;0.90;100.00
12146;BME280;6136;47.032;15.398;2024-03-25T01:49:40;96582.97;;;0.81;100.00
12146;BME280;6136;47.032;15.398;2024-03-25T01:52:06;96569.78;;;0.84;100.00
12146;BME280;6136;47.032;15.398;2024-03-25T01:54:33;96583.97;;;0.77;100.00
12146;BME280;6136;47.032;15.398;2024-03-25T01:57:01;96582.03;;;0.82;100.00
12146;BME280;6136;47.032;15.398;2024-03-25T01:59:28;96576.91;;;0.81;100.00
12146;BME280;6136;47.032;15.398;2024-03-25T02:01:55;96577.75;;;0.81;100.00
12146;BME280;6136;47.032;15.398;2024-03-25T02:04:23;96577.75;;;0.81;100.00
12146;BME280;6136;47.032;15.398;2024-03-25T02:06:49;96569.09;;;0.81;100.00
12146;BME280;6136;47.032;15.398;2024-03-25T02:09:17;96572.00;;;0.73;100.00
12146;BME280;6136;47.032;15.398;2024-03-25T02:11:43;96579.88;;;0.71;100.00
12146;BME280;6136;47.032;15.398;2024-03-25T02:14:12;96568.94;;;0.62;100.00
12146;BME280;6136;47.032;15.398;2024-03-25T02:16:38;96563.47;;;0.68;100.00
12146;BME280;6136;47.032;15.398;2024-03-25T02:19:05;96565.19;;;0.69;100.00
12146;BME280;6136;47.032;15.398;2024-03-25T02:21:33;96570.28;;;0.72;100.00
12146;BME280;6136;47.032;15.398;2024-03-25T02:24:02;96576.91;;;0.59;100.00
12146;BME280;6136;47.032;15.398;2024-03-25T02:26:32;96563.88;;;0.59;100.00
12146;BME280;6136;47.032;15.398;2024-03-25T02:28:59;96567.63;;;0.52;100.00
12146;BME280;6136;47.032;15.398;2024-03-25T02:31:25;96569.53;;;0.47;100.00
12146;BME280;6136;47.032;15.398;2024-03-25T02:33:53;96566.81;;;0.50;100.00
12146;BME280;6136;47.032;15.398;2024-03-25T02:36:19;96564.38;;;0.45;100.00
12146;BME280;6136;47.032;15.398;2024-03-25T02:38:46;96559.97;;;0.47;100.00
12146;BME280;6136;47.032;15.398;2024-03-25T02:41:12;96570.56;;;0.43;100.00
12146;BME280;6136;47.032;15.398;2024-03-25T02:43:41;96564.31;;;0.47;100.00
12146;BME280;6136;47.032;15.398;2024-03-25T02:46:07;96572.84;;;0.52;100.00
12146;BME280;6136;47.032;15.398;2024-03-25T02:48:35;96574.50;;;0.53;100.00
12146;BME280;6136;47.032;15.398;2024-03-25T02:51:01;96567.63;;;0.52;100.00
12146;BME280;6136;47.032;15.398;2024-03-25T02:53:28;96577.91;;;0.55;100.00
12146;BME280;6136;47.032;15.398;2024-03-25T02:55:54;96578.75;;;0.55;100.00
12146;BME280;6136;47.032;15.398;2024-03-25T02:58:21;96583.88;;;0.58;100.00
12146;BME280;6136;47.032;15.398;2024-03-25T03:00:48;96578.72;;;0.57;100.00
12146;BME280;6136;47.032;15.398;2024-03-25T03:03:15;96572.63;;;0.56;100.00
12146;BME280;6136;47.032;15.398;2024-03-25T03:05:41;96575.97;;;0.60;100.00
12146;BME280;6136;47.032;15.398;2024-03-25T03:08:08;96586.63;;;0.54;100.00
12146;BME280;6136;47.032;15.398;2024-03-25T03:10:35;96584.06;;;0.52;100.00
12146;BME280;6136;47.032;15.398;2024-03-25T03:13:02;96588.56;;;0.49;100.00
12146;BME280;6136;47.032;15.398;2024-03-25T03:15:28;96598.34;;;0.44;100.00
12146;BME280;6136;47.032;15.398;2024-03-25T03:17:56;96604.22;;;0.49;100.00
12146;BME280;6136;47.032;15.398;2024-03-25T03:20:22;96593.97;;;0.44;100.00
12146;BME280;6136;47.032;15.398;2024-03-25T03:22:49;96594.97;;;0.40;100.00
12146;BME280;6136;47.032;15.398;2024-03-25T03:25:16;96597.63;;;0.38;100.00
12146;BME280;6136;47.032;15.398;2024-03-25T03:27:43;96595.50;;;0.26;100.00
12146;BME280;6136;47.032;15.398;2024-03-25T03:30:10;96591.66;;;0.36;100.00
12146;BME280;6136;47.032;15.398;2024-03-25T03:32:37;96593.31;;;0.37;100.00
12146;BME280;6136;47.032;15.398;2024-03-25T03:35:05;96595.03;;;0.38;100.00
12146;BME280;6136;47.032;15.398;2024-03-25T03:37:33;96590.06;;;0.32;100.00
12146;BME280;6136;47.032;15.398;2024-03-25T03:39:59;96593.75;;;0.27;100.00
12146;BME280;6136;47.032;15.398;2024-03-25T03:42:26;96596.41;;;0.25;100.00
12146;BME280;6136;47.032;15.398;2024-03-25T03:44:52;96593.69;;;0.28;100.00
12146;BME280;6136;47.032;15.398;2024-03-25T03:47:19;96593.97;;;0.21;100.00
12146;BME280;6136;47.032;15.398;2024-03-25T03:49:45;96606.19;;;0.19;100.00
12146;BME280;6136;47.032;15.398;2024-03-25T03:52:13;96591.66;;;0.13;100.00
12146;BME280;6136;47.032;15.398;2024-03-25T03:54:39;96598.75;;;0.08;100.00
12146;BME280;6136;47.032;15.398;2024-03-25T03:57:06;96599.47;;;0.13;100.00
12146;BME280;6136;47.032;15.398;2024-03-25T03:59:32;96594.69;;;0.24;100.00
12146;BME280;6136;47.032;15.398;2024-03-25T04:01:59;96592.72;;;0.08;100.00
12146;BME280;6136;47.032;15.398;2024-03-25T04:04:25;96587.41;;;0.11;100.00
12146;BME280;6136;47.032;15.398;2024-03-25T04:06:52;96601.22;;;0.13;100.00
12146;BME280;6136;47.032;15.398;2024-03-25T04:09:20;96603.97;;;0.08;100.00
12146;BME280;6136;47.032;15.398;2024-03-25T04:11:48;96607.06;;;0.19;100.00
12146;BME280;6136;47.032;15.398;2024-03-25T04:14:14;96602.94;;;0.14;100.00
12146;BME280;6136;47.032;15.398;2024-03-25T04:16:41;96598.75;;;0.08;100.00
12146;BME280;6136;47.032;15.398;2024-03-25T04:19:07;96603.19;;;0.06;100.00
12146;BME280;6136;47.032;15.398;2024-03-25T04:21:34;96609.75;;;0.16;100.00
12146;BME280;6136;47.032;15.398;2024-03-25T04:24:00;96617.47;;;0.19;100.00
12146;BME280;6136;47.032;15.398;2024-03-25T04:26:29;96626.09;;;0.21;100.00
12146;BME280;6136;47.032;15.398;2024-03-25T04:28:55;96626.09;;;0.21;100.00
12146;BME280;6136;47.032;15.398;2024-03-25T04:31:22;96621.56;;;0.26;100.00
12146;BME280;6136;47.032;15.398;2024-03-25T04:33:48;96635.47;;;0.25;100.00
12146;BME280;6136;47.032;15.398;2024-03-25T04:36:15;96632.25;;;0.19;100.00
12146;BME280;6136;47.032;15.398;2024-03-25T04:38:42;96629.28;;;0.29;100.00
12146;BME280;6136;47.032;15.398;2024-03-25T04:41:08;96640.50;;;0.30;100.00
12146;BME280;6136;47.032;15.398;2024-03-25T04:43:35;96642.06;;;0.35;100.00
12146;BME280;6136;47.032;15.398;2024-03-25T04:46:01;96641.16;;;0.36;100.00
12146;BME280;6136;47.032;15.398;2024-03-25T04:48:27;96646.75;;;0.49;100.00
12146;BME280;6136;47.032;15.398;2024-03-25T04:50:54;96644.16;;;0.49;100.00
12146;BME280;6136;47.032;15.398;2024-03-25T04:53:21;96636.19;;;0.52;100.00
12146;BME280;6136;47.032;15.398;2024-03-25T04:55:47;96654.00;;;0.64;100.00
12146;BME280;6136;47.032;15.398;2024-03-25T04:58:13;96644.09;;;0.74;100.00
12146;BME280;6136;47.032;15.398;2024-03-25T05:00:41;96648.94;;;0.83;100.00
12146;BME280;6136;47.032;15.398;2024-03-25T05:03:07;96648.16;;;0.81;100.00
12146;BME280;6136;47.032;15.398;2024-03-25T05:05:33;96643.66;;;0.85;100.00
12146;BME280;6136;47.032;15.398;2024-03-25T05:07:59;96658.34;;;0.87;100.00
12146;BME280;6136;47.032;15.398;2024-03-25T05:10:25;96650.84;;;1.01;100.00
12146;BME280;6136;47.032;15.398;2024-03-25T05:12:51;96655.84;;;1.06;100.00
12146;BME280;6136;47.032;15.398;2024-03-25T05:15:17;96654.44;;;1.19;100.00
12146;BME280;6136;47.032;15.398;2024-03-25T05:17:45;96651.69;;;1.24;100.00
12146;BME280;6136;47.032;15.398;2024-03-25T05:20:11;96643.72;;;1.27;100.00
12146;BME280;6136;47.032;15.398;2024-03-25T05:22:37;96655.09;;;1.26;100.00
12146;BME280;6136;47.032;15.398;2024-03-25T05:25:04;96660.91;;;1.32;100.00
12146;BME280;6136;47.032;15.398;2024-03-25T05:27:30;96658.00;;;1.40;100.00
12146;BME280;6136;47.032;15.398;2024-03-25T05:29:56;96668.66;;;1.34;100.00
12146;BME280;6136;47.032;15.398;2024-03-25T05:32:22;96668.44;;;1.40;100.00
12146;BME280;6136;47.032;15.398;2024-03-25T05:34:50;96677.81;;;1.44;100.00
12146;BME280;6136;47.032;15.398;2024-03-25T05:37:16;96673.75;;;1.37;100.00
12146;BME280;6136;47.032;15.398;2024-03-25T05:39:43;96668.44;;;1.40;100.00
12146;BME280;6136;47.032;15.398;2024-03-25T05:42:09;96671.81;;;1.42;100.00
12146;BME280;6136;47.032;15.398;2024-03-25T05:44:35;96673.66;;;1.40;100.00
12146;BME280;6136;47.032;15.398;2024-03-25T05:47:01;96682.19;;;1.43;100.00
12146;BME280;6136;47.032;15.398;2024-03-25T05:49:28;96683.59;;;1.52;100.00
12146;BME280;6136;47.032;15.398;2024-03-25T05:51:55;96697.81;;;1.65;100.00
12146;BME280;6136;47.032;15.398;2024-03-25T05:54:22;96692.03;;;1.79;100.00
12146;BME280;6136;47.032;15.398;2024-03-25T05:56:52;96692.78;;;1.82;100.00
12146;BME280;6136;47.032;15.398;2024-03-25T05:59:18;96702.41;;;1.80;100.00
12146;BME280;6136;47.032;15.398;2024-03-25T06:01:44;96709.75;;;1.92;100.00
12146;BME280;6136;47.032;15.398;2024-03-25T06:04:10;96713.66;;;2.03;100.00
12146;BME280;6136;47.032;15.398;2024-03-25T06:06:36;96712.50;;;2.10;100.00
12146;BME280;6136;47.032;15.398;2024-03-25T06:09:04;96710.41;;;2.18;100.00
12146;BME280;6136;47.032;15.398;2024-03-25T06:11:30;96709.38;;;2.22;100.00
12146;BME280;6136;47.032;15.398;2024-03-25T06:13:56;96729.22;;;2.26;100.00
12146;BME280;6136;47.032;15.398;2024-03-25T06:16:22;96730.94;;;2.27;100.00
12146;BME280;6136;47.032;15.398;2024-03-25T06:18:51;96729.88;;;2.31;100.00
12146;BME280;6136;47.032;15.398;2024-03-25T06:21:17;96731.47;;;2.35;100.00
12146;BME280;6136;47.032;15.398;2024-03-25T06:23:44;96738.56;;;2.31;100.00
12146;BME280;6136;47.032;15.398;2024-03-25T06:26:11;96728.97;;;2.32;100.00
12146;BME280;6136;47.032;15.398;2024-03-25T06:28:38;96727.13;;;2.34;100.00
12146;BME280;6136;47.032;15.398;2024-03-25T06:31:04;96742.81;;;2.34;100.00
12146;BME280;6136;47.032;15.398;2024-03-25T06:33:49;96736.78;;;2.52;100.00
12146;BME280;6136;47.032;15.398;2024-03-25T06:36:33;96733.34;;;2.52;100.00
12146;BME280;6136;47.032;15.398;2024-03-25T06:39:00;96731.66;;;2.51;100.00
12146;BME280;6136;47.032;15.398;2024-03-25T06:41:27;96726.19;;;2.55;100.00
12146;BME280;6136;47.032;15.398;2024-03-25T06:43:53;96729.22;;;2.66;100.00
12146;BME280;6136;47.032;15.398;2024-03-25T06:46:20;96732.97;;;2.80;100.00
12146;BME280;6136;47.032;15.398;2024-03-25T06:48:46;96731.09;;;2.82;100.00
12146;BME280;6136;47.032;15.398;2024-03-25T06:51:12;96732.34;;;2.93;100.00
12146;BME280;6136;47.032;15.398;2024-03-25T06:53:38;96735.91;;;3.11;100.00
12146;BME280;6136;47.032;15.398;2024-03-25T06:56:05;96731.50;;;3.30;100.00
12146;BME280;6136;47.032;15.398;2024-03-25T06:58:35;96730.72;;;3.64;100.00
12146;BME280;6136;47.032;15.398;2024-03-25T07:01:04;96729.75;;;3.67;100.00
12146;BME280;6136;47.032;15.398;2024-03-25T07:03:31;96737.66;;;4.18;100.00
12146;BME280;6136;47.032;15.398;2024-03-25T07:06:01;96734.34;;;4.32;100.00
12146;BME280;6136;47.032;15.398;2024-03-25T07:08:28;96734.53;;;4.79;100.00
12146;BME280;6136;47.032;15.398;2024-03-25T07:10:54;96733.00;;;5.39;100.00
12146;BME280;6136;47.032;15.398;2024-03-25T07:13:20;96731.47;;;7.29;90.43
12146;BME280;6136;47.032;15.398;2024-03-25T07:15:50;96733.69;;;7.90;81.93
12146;BME280;6136;47.032;15.398;2024-03-25T07:18:16;96735.41;;;9.33;76.19
12146;BME280;6136;47.032;15.398;2024-03-25T07:20:43;96739.78;;;9.58;70.55
12146;BME280;6136;47.032;15.398;2024-03-25T07:23:10;96747.25;;;10.01;67.70
12146;BME280;6136;47.032;15.398;2024-03-25T07:25:37;96749.59;;;11.21;63.88
12146;BME280;6136;47.032;15.398;2024-03-25T07:28:03;96739.25;;;11.74;61.36
12146;BME280;6136;47.032;15.398;2024-03-25T07:30:30;96731.09;;;14.34;51.75
12146;BME280;6136;47.032;15.398;2024-03-25T07:32:58;96730.19;;;14.05;49.50
12146;BME280;6136;47.032;15.398;2024-03-25T07:35:25;96747.28;;;12.91;53.00
12146;BME280;6136;47.032;15.398;2024-03-25T07:37:51;96742.53;;;13.26;53.30
12146;BME280;6136;47.032;15.398;2024-03-25T07:40:18;96735.44;;;12.74;55.86
12146;BME280;6136;47.032;15.398;2024-03-25T07:42:44;96741.47;;;12.97;53.90
12146;BME280;6136;47.032;15.398;2024-03-25T07:45:10;96749.97;;;14.12;49.47
12146;BME280;6136;47.032;15.398;2024-03-25T07:47:37;96736.13;;;15.14;45.90
12146;BME280;6136;47.032;15.398;2024-03-25T07:50:05;96744.09;;;15.34;47.79
12146;BME280;6136;47.032;15.398;2024-03-25T07:52:32;96742.47;;;14.94;46.44
12146;BME280;6136;47.032;15.398;2024-03-25T07:54:58;96740.75;;;13.36;49.08
12146;BME280;6136;47.032;15.398;2024-03-25T07:57:24;96744.06;;;12.87;49.87
12146;BME280;6136;47.032;15.398;2024-03-25T07:59:51;96748.03;;;11.41;54.04
12146;BME280;6136;47.032;15.398;2024-03-25T08:02:17;96764.63;;;10.52;55.17
12146;BME280;6136;47.032;15.398;2024-03-25T08:04:43;96757.56;;;11.88;57.11
12146;BME280;6136;47.032;15.398;2024-03-25T08:07:10;96750.63;;;13.95;53.08
12146;BME280;6136;47.032;15.398;2024-03-25T08:09:36;96750.03;;;15.08;49.21
12146;BME280;6136;47.032;15.398;2024-03-25T08:12:03;96749.22;;;16.19;47.10
12146;BME280;6136;47.032;15.398;2024-03-25T08:14:29;96745.66;;;16.28;47.61
12146;BME280;6136;47.032;15.398;2024-03-25T08:16:56;96743.91;;;16.09;46.38
12146;BME280;6136;47.032;15.398;2024-03-25T08:19:22;96747.09;;;15.11;47.22
12146;BME280;6136;47.032;15.398;2024-03-25T08:21:48;96750.22;;;14.88;47.11
12146;BME280;6136;47.032;15.398;2024-03-25T08:24:16;96737.28;;;14.93;46.29
12146;BME280;6136;47.032;15.398;2024-03-25T08:26:42;96740.19;;;15.19;47.00
12146;BME280;6136;47.032;15.398;2024-03-25T08:29:08;96744.75;;;16.55;45.62
12146;BME280;6136;47.032;15.398;2024-03-25T08:31:37;96738.28;;;16.12;44.36
12146;BME280;6136;47.032;15.398;2024-03-25T08:34:03;96742.31;;;16.16;45.11
12146;BME280;6136;47.032;15.398;2024-03-25T08:36:30;96736.41;;;15.68;45.70
12146;BME280;6136;47.032;15.398;2024-03-25T08:38:56;96730.84;;;16.51;44.04
12146;BME280;6136;47.032;15.398;2024-03-25T08:41:26;96725.78;;;17.79;40.89
12146;BME280;6136;47.032;15.398;2024-03-25T08:43:52;96714.69;;;19.15;37.91
12146;BME280;6136;47.032;15.398;2024-03-25T08:46:18;96718.72;;;18.94;37.23
12146;BME280;6136;47.032;15.398;2024-03-25T08:48:45;96715.97;;;18.54;37.03
12146;BME280;6136;47.032;15.398;2024-03-25T08:51:11;96707.31;;;19.00;37.22
12146;BME280;6136;47.032;15.398;2024-03-25T08:53:37;96694.69;;;19.33;35.55
12146;BME280;6136;47.032;15.398;2024-03-25T08:56:04;96707.22;;;19.65;34.62
12146;BME280;6136;47.032;15.398;2024-03-25T08:58:32;96694.94;;;23.63;27.35
12146;BME280;6136;47.032;15.398;2024-03-25T09:00:58;96697.63;;;25.78;24.32
12146;BME280;6136;47.032;15.398;2024-03-25T09:03:25;96690.81;;;26.26;24.92
12146;BME280;6136;47.032;15.398;2024-03-25T09:05:53;96681.75;;;25.35;26.10
12146;BME280;6136;47.032;15.398;2024-03-25T09:08:20;96690.09;;;25.21;25.05
12146;BME280;6136;47.032;15.398;2024-03-25T09:10:46;96687.16;;;25.81;24.20
12146;BME280;6136;47.032;15.398;2024-03-25T09:13:32;96687.91;;;26.28;24.28
12146;BME280;6136;47.032;15.398;2024-03-25T09:15:58;96688.22;;;26.51;22.92
12146;BME280;6136;47.032;15.398;2024-03-25T09:18:24;96695.88;;;24.78;25.73
12146;BME280;6136;47.032;15.398;2024-03-25T09:20:52;96694.06;;;25.84;23.19
12146;BME280;6136;47.032;15.398;2024-03-25T09:23:18;96692.81;;;26.51;22.91
12146;BME280;6136;47.032;15.398;2024-03-25T09:25:51;96683.66;;;25.48;24.04
12146;BME280;6136;47.032;15.398;2024-03-25T09:28:18;96683.19;;;26.86;22.35
12146;BME280;6136;47.032;15.398;2024-03-25T09:30:47;96683.69;;;26.32;24.19
12146;BME280;6136;47.032;15.398;2024-03-25T09:33:13;96673.84;;;25.07;25.87
12146;BME280;6136;47.032;15.398;2024-03-25T09:35:39;96680.25;;;24.80;27.00
12146;BME280;6136;47.032;15.398;2024-03-25T09:38:05;96675.72;;;24.26;26.72
12146;BME280;6136;47.032;15.398;2024-03-25T09:40:32;96679.59;;;24.65;25.06
12146;BME280;6136;47.032;15.398;2024-03-25T09:43:02;96676.81;;;23.35;25.43
12146;BME280;6136;47.032;15.398;2024-03-25T09:45:29;96673.88;;;23.30;26.11
12146;BME280;6136;47.032;15.398;2024-03-25T09:47:57;96676.56;;;24.33;25.65
12146;BME280;6136;47.032;15.398;2024-03-25T09:50:24;96676.16;;;22.27;27.51
12146;BME280;6136;47.032;15.398;2024-03-25T09:52:51;96681.28;;;22.58;26.45
12146;BME280;6136;47.032;15.398;2024-03-25T09:55:17;96680.09;;;22.81;26.93
12146;BME280;6136;47.032;15.398;2024-03-25T09:57:44;96681.78;;;22.46;27.30
12146;BME280;6136;47.032;15.398;2024-03-25T10:00:12;96681.13;;;21.64;27.35
12146;BME280;6136;47.032;15.398;2024-03-25T10:02:39;96684.00;;;21.34;25.88
12146;BME280;6136;47.032;15.398;2024-03-25T10:05:07;96692.53;;;19.92;28.01
12146;BME280;6136;47.032;15.398;2024-03-25T10:07:34;96679.72;;;22.13;28.17
12146;BME280;6136;47.032;15.398;2024-03-25T10:10:03;96678.97;;;22.19;27.00
12146;BME280;6136;47.032;15.398;2024-03-25T10:12:30;96679.22;;;22.74;26.95
12146;BME280;6136;47.032;15.398;2024-03-25T10:14:56;96679.47;;;22.79;26.23
12146;BME280;6136;47.032;15.398;2024-03-25T10:17:22;96679.63;;;22.21;27.31
12146;BME280;6136;47.032;15.398;2024-03-25T10:19:48;96684.84;;;19.73;29.38
12146;BME280;6136;47.032;15.398;2024-03-25T10:22:16;96679.47;;;18.03;31.36
12146;BME280;6136;47.032;15.398;2024-03-25T10:24:43;96669.31;;;18.22;30.88
12146;BME280;6136;47.032;15.398;2024-03-25T10:27:10;96680.38;;;19.96;30.78
12146;BME280;6136;47.032;15.398;2024-03-25T10:29:37;96674.53;;;22.68;29.57
12146;BME280;6136;47.032;15.398;2024-03-25T10:32:04;96662.06;;;24.61;25.23
12146;BME280;6136;47.032;15.398;2024-03-25T10:34:30;96662.13;;;26.75;22.63
12146;BME280;6136;47.032;15.398;2024-03-25T10:36:57;96660.91;;;25.23;23.37
12146;BME280;6136;47.032;15.398;2024-03-25T10:39:27;96651.69;;;25.50;22.35
12146;BME280;6136;47.032;15.398;2024-03-25T10:41:56;96652.31;;;24.66;23.48
12146;BME280;6136;47.032;15.398;2024-03-25T10:44:23;96656.22;;;24.51;22.52
12146;BME280;6136;47.032;15.398;2024-03-25T10:46:52;96659.13;;;22.26;23.80
12146;BME280;6136;47.032;15.398;2024-03-25T10:49:28;96653.75;;;22.69;25.09
12146;BME280;6136;47.032;15.398;2024-03-25T10:51:56;96646.88;;;23.65;24.17
12146;BME280;6136;47.032;15.398;2024-03-25T10:54:24;96651.00;;;24.49;21.57
12146;BME280;6136;47.032;15.398;2024-03-25T10:56:52;96644.91;;;26.88;19.62
12146;BME280;6136;47.032;15.398;2024-03-25T10:59:20;96632.09;;;26.63;19.48
12146;BME280;6136;47.032;15.398;2024-03-25T11:01:47;96623.88;;;26.39;20.75
12146;BME280;6136;47.032;15.398;2024-03-25T11:04:14;96621.13;;;23.75;23.05
12146;BME280;6136;47.032;15.398;2024-03-25T11:06:40;96624.75;;;22.99;23.41
12146;BME280;6136;47.032;15.398;2024-03-25T11:09:06;96624.91;;;21.47;25.29
12146;BME280;6136;47.032;15.398;2024-03-25T11:11:33;96632.78;;;18.54;28.17
12146;BME280;6136;47.032;15.398;2024-03-25T11:14:04;96627.16;;;19.92;27.94
12146;BME280;6136;47.032;15.398;2024-03-25T11:16:31;96631.38;;;19.39;27.45
12146;BME280;6136;47.032;15.398;2024-03-25T11:19:02;96626.06;;;18.98;25.98
12146;BME280;6136;47.032;15.398;2024-03-25T11:21:28;96623.75;;;18.87;27.95
12146;BME280;6136;47.032;15.398;2024-03-25T11:23:55;96619.34;;;20.36;26.00
12146;BME280;6136;47.032;15.398;2024-03-25T11:26:31;96614.56;;;22.16;26.62
12146;BME280;6136;47.032;15.398;2024-03-25T11:28:57;96608.09;;;22.31;25.38
12146;BME280;6136;47.032;15.398;2024-03-25T11:31:26;96617.47;;;24.57;21.74
12146;BME280;6136;47.032;15.398;2024-03-25T11:33:52;96602.91;;;25.37;22.09
12146;BME280;6136;47.032;15.398;2024-03-25T11:36:18;96600.41;;;25.35;23.02
12146;BME280;6136;47.032;15.398;2024-03-25T11:38:45;96603.84;;;25.82;20.52
12146;BME280;6136;47.032;15.398;2024-03-25T11:41:11;96598.72;;;25.28;20.88
12146;BME280;6136;47.032;15.398;2024-03-25T11:43:38;96601.75;;;23.72;21.86
12146;BME280;6136;47.032;15.398;2024-03-25T11:46:05;96602.22;;;24.23;21.69
12146;BME280;6136;47.032;15.398;2024-03-25T11:48:33;96590.38;;;24.57;20.99
12146;BME280;6136;47.032;15.398;2024-03-25T11:50:59;96595.38;;;22.89;22.94
12146;BME280;6136;47.032;15.398;2024-03-25T11:53:25;96584.78;;;22.88;22.23
12146;BME280;6136;47.032;15.398;2024-03-25T11:55:52;96590.06;;;23.65;21.47
12146;BME280;6136;47.032;15.398;2024-03-25T11:58:18;96575.50;;;22.54;21.76
12146;BME280;6136;47.032;15.398;2024-03-25T12:00:44;96577.72;;;22.23;23.23
12146;BME280;6136;47.032;15.398;2024-03-25T12:03:12;96570.22;;;21.53;24.40
12146;BME280;6136;47.032;15.398;2024-03-25T12:05:40;96560.88;;;22.42;24.49
12146;BME280;6136;47.032;15.398;2024-03-25T12:08:08;96567.25;;;23.80;21.90
12146;BME280;6136;47.032;15.398;2024-03-25T12:10:36;96560.81;;;23.40;23.00
12146;BME280;6136;47.032;15.398;2024-03-25T12:13:22;96563.94;;;22.81;21.84
12146;BME280;6136;47.032;15.398;2024-03-25T12:15:49;96562.44;;;24.36;20.51
12146;BME280;6136;47.032;15.398;2024-03-25T12:18:16;96561.22;;;24.72;20.15
12146;BME280;6136;47.032;15.398;2024-03-25T12:20:46;96556.59;;;24.26;20.25
12146;BME280;6136;47.032;15.398;2024-03-25T12:23:12;96549.06;;;25.40;21.85
12146;BME280;6136;47.032;15.398;2024-03-25T12:25:38;96554.13;;;24.71;20.18
12146;BME280;6136;47.032;15.398;2024-03-25T12:28:08;96550.38;;;24.79;19.14
12146;BME280;6136;47.032;15.398;2024-03-25T12:30:48;96538.47;;;24.53;21.13
12146;BME280;6136;47.032;15.398;2024-03-25T12:33:15;96556.25;;;23.47;22.18
12146;BME280;6136;47.032;15.398;2024-03-25T12:35:41;96543.25;;;24.25;21.49
12146;BME280;6136;47.032;15.398;2024-03-25T12:38:09;96538.34;;;22.77;22.14
12146;BME280;6136;47.032;15.398;2024-03-25T12:40:35;96547.59;;;21.18;24.57
12146;BME280;6136;47.032;15.398;2024-03-25T12:43:01;96554.25;;;22.94;21.79
12146;BME280;6136;47.032;15.398;2024-03-25T12:45:28;96540.22;;;23.46;21.08
12146;BME280;6136;47.032;15.398;2024-03-25T12:47:54;96528.59;;;23.93;21.74
12146;BME280;6136;47.032;15.398;2024-03-25T12:50:20;96529.75;;;22.46;23.09
12146;BME280;6136;47.032;15.398;2024-03-25T12:52:47;96525.28;;;24.17;19.93
12146;BME280;6136;47.032;15.398;2024-03-25T12:55:15;96527.44;;;25.14;19.08
12146;BME280;6136;47.032;15.398;2024-03-25T12:57:41;96526.09;;;23.91;19.36
12146;BME280;6136;47.032;15.398;2024-03-25T13:00:08;96531.47;;;21.39;22.10